createdAt,value
2022-07-27T00:00:48.738Z,17.81
2022-07-27T00:01:50.979Z,17.82
2022-07-27T00:02:51.477Z,17.87
2022-07-27T00:03:48.696Z,17.92
2022-07-27T00:04:48.720Z,17.93
2022-07-27T00:05:48.590Z,17.96
2022-07-27T00:06:48.600Z,17.96
2022-07-27T00:07:48.769Z,17.99
2022-07-27T00:08:48.904Z,18.02
2022-07-27T00:09:48.534Z,18.03
2022-07-27T00:10:48.529Z,18.03
2022-07-27T00:11:48.518Z,18.03
2022-07-27T00:12:48.496Z,18.05
2022-07-27T00:13:48.476Z,18.05
2022-07-27T00:14:49.246Z,18.03
2022-07-27T00:15:48.715Z,18.05
2022-07-27T00:16:48.473Z,18.07
2022-07-27T00:17:48.437Z,18.07
2022-07-27T00:18:48.455Z,18.07
2022-07-27T00:19:48.435Z,18.08
2022-07-27T00:20:48.746Z,18.08
2022-07-27T00:21:48.410Z,18.07
2022-07-27T00:22:48.364Z,18.03
2022-07-27T00:23:48.346Z,18.02
2022-07-27T00:24:48.373Z,17.99
2022-07-27T00:25:48.387Z,17.97
2022-07-27T00:26:48.973Z,17.97
2022-07-27T00:27:48.335Z,17.96
2022-07-27T00:28:48.304Z,17.92
2022-07-27T00:29:48.285Z,17.92
2022-07-27T00:30:48.261Z,17.93
2022-07-27T00:31:48.908Z,17.92
2022-07-27T00:32:48.283Z,17.93
2022-07-27T00:33:48.220Z,17.93
2022-07-27T00:34:48.210Z,17.95
2022-07-27T00:35:48.214Z,17.92
2022-07-27T00:36:48.730Z,17.92
2022-07-27T00:37:48.164Z,17.89
2022-07-27T00:38:48.171Z,17.86
2022-07-27T00:39:48.159Z,17.84
2022-07-27T00:40:48.202Z,17.81
2022-07-27T00:41:48.711Z,17.77
2022-07-27T00:42:48.130Z,17.75
2022-07-27T00:43:48.102Z,17.74
2022-07-27T00:44:48.112Z,17.70
2022-07-27T00:45:48.396Z,17.70
2022-07-27T00:46:48.099Z,17.66
2022-07-27T00:47:53.082Z,17.62
2022-07-27T00:48:49.117Z,17.63
2022-07-27T00:49:48.157Z,17.63
2022-07-27T00:50:48.693Z,17.64
2022-07-27T00:51:48.018Z,17.68
2022-07-27T00:52:47.997Z,17.70
2022-07-27T00:53:47.993Z,17.72
2022-07-27T00:54:47.957Z,17.74
2022-07-27T00:55:48.408Z,17.75
2022-07-27T00:56:47.945Z,17.75
2022-07-27T00:57:58.859Z,17.74
2022-07-27T00:58:48.933Z,17.72
2022-07-27T00:59:47.907Z,17.74
2022-07-27T01:00:48.293Z,17.77
2022-07-27T01:01:47.963Z,17.77
2022-07-27T01:02:47.912Z,17.75
2022-07-27T01:03:48.094Z,17.77
2022-07-27T01:04:48.048Z,17.77
2022-07-27T01:05:48.210Z,17.74
2022-07-27T01:06:47.817Z,17.77
2022-07-27T01:07:47.778Z,17.74
2022-07-27T01:08:47.768Z,17.72
2022-07-27T01:09:47.786Z,17.68
2022-07-27T01:10:48.167Z,17.68
2022-07-27T01:11:47.741Z,17.63
2022-07-27T01:12:47.723Z,17.59
2022-07-27T01:13:47.715Z,17.56
2022-07-27T01:14:47.727Z,17.56
2022-07-27T01:15:48.102Z,17.54
2022-07-27T01:16:47.672Z,17.52
2022-07-27T01:17:47.660Z,17.52
2022-07-27T01:18:47.648Z,17.51
2022-07-27T01:19:47.656Z,17.49
2022-07-27T01:20:47.615Z,17.44
2022-07-27T01:21:48.055Z,17.44
2022-07-27T01:22:47.605Z,17.41
2022-07-27T01:23:47.585Z,17.38
2022-07-27T01:24:47.592Z,17.34
2022-07-27T01:25:47.585Z,17.31
2022-07-27T01:26:47.546Z,17.30
2022-07-27T01:27:48.004Z,17.23
2022-07-27T01:28:47.526Z,17.19
2022-07-27T01:29:47.523Z,17.14
2022-07-27T01:30:47.556Z,17.07
2022-07-27T01:31:47.513Z,17.00
2022-07-27T01:32:47.884Z,16.93
2022-07-27T01:33:47.455Z,16.88
2022-07-27T01:34:47.430Z,16.85
2022-07-27T01:35:47.426Z,16.81
2022-07-27T01:36:47.430Z,16.76
2022-07-27T01:37:48.297Z,16.73
2022-07-27T01:38:47.823Z,16.68
2022-07-27T01:39:47.374Z,16.64
2022-07-27T01:40:47.359Z,16.63
2022-07-27T01:41:47.337Z,16.60
2022-07-27T01:42:47.322Z,16.57
2022-07-27T01:43:47.321Z,16.56
2022-07-27T01:44:47.614Z,16.57
2022-07-27T01:45:47.272Z,16.60
2022-07-27T01:46:47.307Z,16.63
2022-07-27T01:47:47.251Z,16.66
2022-07-27T01:48:47.320Z,16.71
2022-07-27T01:49:47.552Z,16.76
2022-07-27T01:50:47.629Z,16.78
2022-07-27T01:51:47.209Z,16.78
2022-07-27T01:52:47.211Z,16.76
2022-07-27T01:53:47.169Z,16.78
2022-07-27T01:54:47.179Z,16.78
2022-07-27T01:55:47.585Z,16.78
2022-07-27T01:56:47.149Z,16.78
2022-07-27T01:57:47.120Z,16.75
2022-07-27T01:58:47.120Z,16.78
2022-07-27T01:59:47.103Z,16.79
2022-07-27T02:00:54.404Z,16.76
2022-07-27T02:01:47.174Z,16.78
2022-07-27T02:02:55.108Z,16.73
2022-07-27T02:03:54.076Z,16.71
2022-07-27T02:04:47.051Z,16.68
2022-07-27T02:05:54.044Z,16.64
2022-07-27T02:06:54.362Z,16.63
2022-07-27T02:07:54.041Z,16.58
2022-07-27T02:08:53.986Z,16.53
2022-07-27T02:09:53.977Z,16.49
2022-07-27T02:10:53.973Z,16.46
2022-07-27T02:11:47.369Z,16.46
2022-07-27T02:12:53.960Z,16.43
2022-07-27T02:13:53.929Z,16.41
2022-07-27T02:14:53.930Z,16.42
2022-07-27T02:15:54.588Z,16.43
2022-07-27T02:16:46.893Z,16.46
2022-07-27T02:17:54.328Z,16.43
2022-07-27T02:18:48.713Z,16.43
2022-07-27T02:19:46.845Z,16.42
2022-07-27T02:20:46.828Z,16.39
2022-07-27T02:21:46.814Z,16.38
2022-07-27T02:22:46.804Z,16.35
2022-07-27T02:23:47.129Z,16.35
2022-07-27T02:24:46.799Z,16.33
2022-07-27T02:25:46.787Z,16.35
2022-07-27T02:26:49.616Z,16.34
2022-07-27T02:27:46.741Z,16.34
2022-07-27T02:28:46.749Z,16.34
2022-07-27T02:29:47.116Z,16.38
2022-07-27T02:30:46.740Z,16.39
2022-07-27T02:31:46.693Z,16.35
2022-07-27T02:32:46.749Z,16.35
2022-07-27T02:33:46.685Z,16.38
2022-07-27T02:34:47.117Z,16.39
2022-07-27T02:35:46.627Z,16.43
2022-07-27T02:36:46.654Z,16.45
2022-07-27T02:37:46.620Z,16.46
2022-07-27T02:38:46.594Z,16.48
2022-07-27T02:39:46.968Z,16.46
2022-07-27T02:40:46.555Z,16.45
2022-07-27T02:41:46.594Z,16.42
2022-07-27T02:42:46.559Z,16.39
2022-07-27T02:43:46.553Z,16.38
2022-07-27T02:44:46.879Z,16.38
2022-07-27T02:45:46.755Z,16.33
2022-07-27T02:46:46.573Z,16.33
2022-07-27T02:47:46.543Z,16.31
2022-07-27T02:48:46.543Z,16.28
2022-07-27T02:49:46.873Z,16.27
2022-07-27T02:50:46.480Z,16.24
2022-07-27T02:51:46.471Z,16.24
2022-07-27T02:52:46.431Z,16.23
2022-07-27T02:53:46.390Z,16.21
2022-07-27T02:54:46.566Z,16.21
2022-07-27T02:55:46.798Z,16.21
2022-07-27T02:56:46.391Z,16.23
2022-07-27T02:57:46.479Z,16.21
2022-07-27T02:58:46.681Z,16.21
2022-07-27T02:59:46.320Z,16.20
2022-07-27T03:00:46.304Z,16.20
2022-07-27T03:01:46.742Z,16.14
2022-07-27T03:02:46.280Z,16.14
2022-07-27T03:03:46.261Z,16.14
2022-07-27T03:04:46.329Z,16.17
2022-07-27T03:05:46.294Z,16.20
2022-07-27T03:06:46.580Z,16.23
2022-07-27T03:07:46.210Z,16.25
2022-07-27T03:08:46.213Z,16.24
2022-07-27T03:09:52.094Z,16.25
2022-07-27T03:10:48.815Z,16.25
2022-07-27T03:11:46.588Z,16.23
2022-07-27T03:12:46.153Z,16.21
2022-07-27T03:13:46.132Z,16.21
2022-07-27T03:14:46.157Z,16.20
2022-07-27T03:15:46.204Z,16.21
2022-07-27T03:16:46.518Z,16.20
2022-07-27T03:17:47.382Z,16.17
2022-07-27T03:18:46.084Z,16.15
2022-07-27T03:19:46.057Z,16.12
2022-07-27T03:20:46.097Z,16.09
2022-07-27T03:21:46.391Z,16.07
2022-07-27T03:22:46.027Z,16.02
2022-07-27T03:23:46.036Z,15.97
2022-07-27T03:24:46.226Z,15.93
2022-07-27T03:25:45.988Z,15.89
2022-07-27T03:26:46.387Z,15.86
2022-07-27T03:27:45.986Z,15.80
2022-07-27T03:28:45.994Z,15.76
2022-07-27T03:29:45.956Z,15.74
2022-07-27T03:30:45.968Z,15.72
2022-07-27T03:31:46.304Z,15.71
2022-07-27T03:32:45.906Z,15.72
2022-07-27T03:33:45.905Z,15.72
2022-07-27T03:34:45.910Z,15.75
2022-07-27T03:35:46.311Z,15.75
2022-07-27T03:36:45.844Z,15.78
2022-07-27T03:37:45.845Z,15.76
2022-07-27T03:38:45.822Z,15.76
2022-07-27T03:39:45.825Z,15.78
2022-07-27T03:40:46.182Z,15.80
2022-07-27T03:41:45.873Z,15.82
2022-07-27T03:42:45.764Z,15.83
2022-07-27T03:43:45.770Z,15.84
2022-07-27T03:44:45.744Z,15.83
2022-07-27T03:45:46.219Z,15.87
2022-07-27T03:46:45.727Z,15.89
2022-07-27T03:47:45.743Z,15.90
2022-07-27T03:48:45.822Z,15.94
2022-07-27T03:49:45.722Z,15.97
2022-07-27T03:50:46.702Z,16.00
2022-07-27T03:51:45.660Z,16.04
2022-07-27T03:52:45.924Z,16.07
2022-07-27T03:53:45.643Z,16.09
2022-07-27T03:54:45.628Z,16.09
2022-07-27T03:55:45.992Z,16.11
2022-07-27T03:56:45.610Z,16.12
2022-07-27T03:57:45.579Z,16.14
2022-07-27T03:58:45.571Z,16.17
2022-07-27T03:59:45.840Z,16.14
2022-07-27T04:00:45.872Z,16.12
2022-07-27T04:01:45.578Z,16.08
2022-07-27T04:02:45.585Z,16.08
2022-07-27T04:03:45.537Z,16.08
2022-07-27T04:04:45.931Z,16.07
2022-07-27T04:05:45.593Z,16.04
2022-07-27T04:06:45.450Z,16.07
2022-07-27T04:07:45.458Z,16.05
2022-07-27T04:08:45.460Z,16.05
2022-07-27T04:09:47.228Z,16.07
2022-07-27T04:10:45.434Z,16.12
2022-07-27T04:11:50.777Z,16.15
2022-07-27T04:12:46.704Z,16.21
2022-07-27T04:13:45.541Z,16.27
2022-07-27T04:14:45.829Z,16.33
2022-07-27T04:15:45.433Z,16.39
2022-07-27T04:16:45.393Z,16.43
2022-07-27T04:17:54.786Z,16.50
2022-07-27T04:18:46.344Z,16.58
2022-07-27T04:19:45.638Z,16.63
2022-07-27T04:20:45.298Z,16.66
2022-07-27T04:21:45.308Z,16.68
2022-07-27T04:22:45.277Z,16.75
2022-07-27T04:23:45.287Z,16.79
2022-07-27T04:24:47.179Z,16.82
2022-07-27T04:25:45.245Z,16.86
2022-07-27T04:26:46.408Z,16.93
2022-07-27T04:27:45.266Z,16.97
2022-07-27T04:28:45.414Z,17.01
2022-07-27T04:29:46.004Z,17.06
2022-07-27T04:30:45.419Z,17.11
2022-07-27T04:31:45.174Z,17.14
2022-07-27T04:32:45.175Z,17.18
2022-07-27T04:33:47.306Z,17.22
2022-07-27T04:34:45.315Z,17.25
2022-07-27T04:35:45.167Z,17.28
2022-07-27T04:36:45.082Z,17.31
2022-07-27T04:37:58.579Z,17.30
2022-07-27T04:38:46.285Z,17.33
2022-07-27T04:39:45.906Z,17.36
2022-07-27T04:40:45.042Z,17.34
2022-07-27T04:41:44.994Z,17.37
2022-07-27T04:42:48.649Z,17.38
2022-07-27T04:43:45.231Z,17.41
2022-07-27T04:44:44.971Z,17.40
2022-07-27T04:45:45.031Z,17.43
2022-07-27T04:46:44.954Z,17.44
2022-07-27T04:47:44.933Z,17.46
2022-07-27T04:48:49.454Z,17.51
2022-07-27T04:49:44.894Z,17.52
2022-07-27T04:50:44.903Z,17.55
2022-07-27T04:51:45.177Z,17.62
2022-07-27T04:52:44.844Z,17.63
2022-07-27T04:53:53.686Z,17.68
2022-07-27T04:54:45.872Z,17.72
2022-07-27T04:55:44.841Z,17.74
2022-07-27T04:56:44.803Z,17.77
2022-07-27T04:57:45.784Z,17.75
2022-07-27T04:58:45.009Z,17.75
2022-07-27T04:59:44.779Z,17.77
2022-07-27T05:00:44.877Z,17.79
2022-07-27T05:01:44.819Z,17.86
2022-07-27T05:02:44.745Z,17.92
2022-07-27T05:03:45.082Z,17.93
2022-07-27T05:04:44.707Z,17.97
2022-07-27T05:05:49.657Z,18.03
2022-07-27T05:06:45.680Z,18.08
2022-07-27T05:07:44.771Z,18.14
2022-07-27T05:08:44.697Z,18.18
2022-07-27T05:09:44.870Z,18.25
2022-07-27T05:10:44.633Z,18.29
2022-07-27T05:11:50.966Z,18.35
2022-07-27T05:12:45.597Z,18.41
2022-07-27T05:13:44.622Z,18.44
2022-07-27T05:14:44.620Z,18.55
2022-07-27T05:15:54.064Z,18.57
2022-07-27T05:16:46.021Z,18.63
2022-07-27T05:17:44.562Z,18.67
2022-07-27T05:18:44.699Z,18.75
2022-07-27T05:19:44.540Z,18.80
2022-07-27T05:20:44.500Z,18.84
2022-07-27T05:21:44.486Z,18.88
2022-07-27T05:22:44.497Z,18.92
2022-07-27T05:23:44.501Z,18.98
2022-07-27T05:24:44.649Z,19.06
2022-07-27T05:25:47.110Z,19.10
2022-07-27T05:26:44.401Z,19.14
2022-07-27T05:27:51.039Z,19.22
2022-07-27T05:28:45.385Z,19.26
2022-07-27T05:29:44.377Z,19.32
2022-07-27T05:30:44.707Z,19.39
2022-07-27T05:31:44.449Z,19.44
2022-07-27T05:32:44.347Z,19.44
2022-07-27T05:33:48.581Z,19.46
2022-07-27T05:34:45.318Z,19.44
2022-07-27T05:35:44.288Z,19.40
2022-07-27T05:36:44.518Z,19.37
2022-07-27T05:37:44.267Z,19.39
2022-07-27T05:38:44.268Z,19.36
2022-07-27T05:39:44.238Z,19.31
2022-07-27T05:40:44.697Z,19.31
2022-07-27T05:41:44.226Z,19.32
2022-07-27T05:42:44.251Z,19.29
2022-07-27T05:43:44.257Z,19.28
2022-07-27T05:44:44.176Z,19.25
2022-07-27T05:45:44.260Z,19.23
2022-07-27T05:46:44.411Z,19.25
2022-07-27T05:47:44.167Z,19.22
2022-07-27T05:48:44.198Z,19.19
2022-07-27T05:49:44.168Z,19.13
2022-07-27T05:50:45.820Z,19.10
2022-07-27T05:51:44.326Z,19.16
2022-07-27T05:52:44.777Z,19.18
2022-07-27T05:53:44.105Z,19.18
2022-07-27T05:54:44.074Z,19.18
2022-07-27T05:55:58.835Z,19.14
2022-07-27T05:56:45.307Z,19.19
2022-07-27T05:57:44.029Z,19.25
2022-07-27T05:58:44.116Z,19.25
2022-07-27T05:59:43.985Z,19.26
2022-07-27T06:00:44.000Z,19.28
2022-07-27T06:01:44.304Z,19.29
2022-07-27T06:02:44.301Z,19.28
2022-07-27T06:03:44.112Z,19.32
2022-07-27T06:04:44.095Z,19.41
2022-07-27T06:05:43.924Z,19.50
2022-07-27T06:06:44.471Z,19.65
2022-07-27T06:07:44.122Z,19.84
2022-07-27T06:08:45.023Z,19.94
2022-07-27T06:09:43.893Z,19.99
2022-07-27T06:10:44.757Z,20.06
2022-07-27T06:11:51.424Z,20.16
2022-07-27T06:12:43.834Z,20.16
2022-07-27T06:13:50.955Z,20.21
2022-07-27T06:14:51.282Z,20.31
2022-07-27T06:15:44.224Z,20.33
2022-07-27T06:16:50.966Z,20.39
2022-07-27T06:17:51.026Z,20.87
2022-07-27T06:18:50.865Z,21.42
2022-07-27T06:19:44.021Z,20.99
2022-07-27T06:20:51.205Z,20.70
2022-07-27T06:21:53.936Z,20.52
2022-07-27T06:22:50.895Z,20.39
2022-07-27T06:24:59.948Z,20.48
2022-07-27T06:26:08.172Z,20.50
2022-07-27T06:27:06.928Z,20.47
2022-07-27T06:28:06.912Z,20.55
2022-07-27T06:29:10.898Z,20.99
2022-07-27T06:30:07.921Z,21.01
2022-07-27T06:31:07.373Z,20.89
2022-07-27T06:32:07.509Z,20.97
2022-07-27T06:33:07.897Z,20.91
2022-07-27T06:34:01.936Z,20.95
2022-07-27T06:35:06.961Z,21.17
2022-07-27T06:36:00.091Z,21.94
2022-07-27T06:37:08.401Z,22.14
2022-07-27T06:38:06.865Z,22.06
2022-07-27T06:39:06.811Z,21.72
2022-07-27T06:40:07.120Z,21.65
2022-07-27T06:40:59.659Z,21.56
2022-07-27T06:42:06.760Z,21.96
2022-07-27T06:43:06.799Z,22.14
2022-07-27T06:44:07.888Z,22.20
2022-07-27T06:45:06.971Z,22.45
2022-07-27T06:46:07.649Z,22.30
2022-07-27T06:47:07.892Z,22.97
2022-07-27T06:48:07.633Z,23.23
2022-07-27T06:49:07.816Z,23.57
2022-07-27T06:50:06.581Z,24.10
2022-07-27T06:51:06.950Z,24.64
2022-07-27T06:52:07.164Z,24.87
2022-07-27T06:53:07.618Z,25.45
2022-07-27T06:54:07.866Z,25.20
2022-07-27T06:55:08.105Z,24.64
2022-07-27T06:56:06.521Z,24.69
2022-07-27T06:57:06.548Z,25.33
2022-07-27T06:58:07.156Z,25.82
2022-07-27T06:59:07.735Z,26.12
2022-07-27T07:00:06.886Z,25.73
2022-07-27T07:00:59.628Z,26.05
2022-07-27T07:02:07.734Z,26.09
2022-07-27T07:03:06.516Z,26.43
2022-07-27T07:03:59.481Z,26.21
2022-07-27T07:04:59.791Z,25.62
2022-07-27T07:05:59.280Z,25.25
2022-07-27T07:07:01.933Z,25.52
2022-07-27T07:08:00.497Z,25.98
2022-07-27T07:08:59.248Z,26.39
2022-07-27T07:10:00.588Z,26.58
2022-07-27T07:10:59.297Z,26.57
2022-07-27T07:11:59.366Z,26.39
2022-07-27T07:12:59.218Z,25.87
2022-07-27T07:13:59.220Z,25.73
2022-07-27T07:14:59.703Z,24.83
2022-07-27T07:15:59.371Z,25.24
2022-07-27T07:16:59.168Z,26.02
2022-07-27T07:17:59.176Z,25.43
2022-07-27T07:18:59.517Z,24.64
2022-07-27T07:19:59.125Z,24.20
2022-07-27T07:20:59.114Z,23.88
2022-07-27T07:21:59.296Z,23.61
2022-07-27T07:22:59.140Z,23.17
2022-07-27T07:23:59.563Z,22.77
2022-07-27T07:25:02.622Z,22.79
2022-07-27T07:25:59.030Z,23.36
2022-07-27T07:26:59.039Z,23.75
2022-07-27T07:27:59.009Z,24.16
2022-07-27T07:28:59.044Z,24.27
2022-07-27T07:29:58.988Z,24.47
2022-07-27T07:30:59.029Z,24.64
2022-07-27T07:31:59.069Z,24.88
2022-07-27T07:32:59.048Z,25.14
2022-07-27T07:33:59.537Z,25.38
2022-07-27T07:34:58.984Z,25.72
2022-07-27T07:36:12.393Z,26.17
2022-07-27T07:36:59.889Z,25.91
2022-07-27T07:37:58.906Z,25.87
2022-07-27T07:38:59.232Z,26.07
2022-07-27T07:40:12.698Z,26.29
2022-07-27T07:40:59.869Z,26.23
2022-07-27T07:41:58.840Z,25.92
2022-07-27T07:42:58.838Z,25.61
2022-07-27T07:43:59.312Z,25.50
2022-07-27T07:44:58.809Z,25.54
2022-07-27T07:45:58.811Z,25.69
2022-07-27T07:46:58.878Z,26.13
2022-07-27T07:47:58.785Z,26.28
2022-07-27T07:48:58.967Z,26.18
2022-07-27T07:49:58.775Z,26.13
2022-07-27T07:50:58.774Z,25.47
2022-07-27T07:51:58.707Z,25.13
2022-07-27T07:52:58.949Z,24.90
2022-07-27T07:53:58.709Z,25.65
2022-07-27T07:54:58.696Z,25.67
2022-07-27T07:55:58.680Z,25.76
2022-07-27T07:56:58.860Z,25.23
2022-07-27T07:57:59.058Z,24.88
2022-07-27T07:58:58.618Z,24.85
2022-07-27T07:59:58.635Z,24.84
2022-07-27T08:00:58.627Z,24.84
2022-07-27T08:01:58.699Z,25.03
2022-07-27T08:02:58.969Z,24.85
2022-07-27T08:03:58.588Z,24.84
2022-07-27T08:04:58.566Z,24.96
2022-07-27T08:05:58.544Z,25.09
2022-07-27T08:06:58.544Z,25.21
2022-07-27T08:07:58.979Z,25.38
2022-07-27T08:08:58.605Z,25.05
2022-07-27T08:09:58.794Z,24.81
2022-07-27T08:10:58.829Z,24.61
2022-07-27T08:11:58.467Z,24.81
2022-07-27T08:12:58.901Z,24.99
2022-07-27T08:13:58.483Z,25.40
2022-07-27T08:14:58.436Z,25.54
2022-07-27T08:15:58.495Z,25.85
2022-07-27T08:16:58.432Z,26.06
2022-07-27T08:17:58.787Z,25.70
2022-07-27T08:18:58.420Z,25.72
2022-07-27T08:19:58.388Z,25.90
2022-07-27T08:20:58.393Z,25.87
2022-07-27T08:21:58.406Z,25.91
2022-07-27T08:22:58.710Z,26.10
2022-07-27T08:23:58.852Z,26.21
2022-07-27T08:24:58.318Z,26.51
2022-07-27T08:25:59.409Z,26.09
2022-07-27T08:26:58.639Z,26.12
2022-07-27T08:27:58.278Z,26.07
2022-07-27T08:28:59.384Z,26.25
2022-07-27T08:29:59.301Z,26.28
2022-07-27T08:30:58.305Z,26.18
2022-07-27T08:31:58.284Z,26.17
2022-07-27T08:32:58.742Z,26.20
2022-07-27T08:33:58.196Z,26.36
2022-07-27T08:34:58.181Z,26.55
2022-07-27T08:35:58.186Z,26.84
2022-07-27T08:36:58.197Z,26.80
2022-07-27T08:37:58.200Z,26.77
2022-07-27T08:38:58.182Z,25.98
2022-07-27T08:40:37.928Z,25.43
2022-07-27T08:40:59.126Z,25.27
2022-07-27T08:41:58.106Z,25.30
2022-07-27T08:42:58.526Z,25.39
2022-07-27T08:43:58.087Z,25.55
2022-07-27T08:44:58.091Z,25.64
2022-07-27T08:45:58.264Z,25.51
2022-07-27T08:46:58.112Z,25.61
2022-07-27T08:47:58.158Z,25.82
2022-07-27T08:48:58.441Z,26.01
2022-07-27T08:49:58.082Z,26.26
2022-07-27T08:50:58.094Z,26.21
2022-07-27T08:51:57.993Z,26.12
2022-07-27T08:52:57.958Z,26.28
2022-07-27T08:53:57.968Z,26.44
2022-07-27T08:54:58.169Z,26.50
2022-07-27T08:55:57.968Z,26.67
2022-07-27T08:56:57.927Z,26.87
2022-07-27T08:58:02.494Z,26.91
2022-07-27T08:58:58.921Z,27.02
2022-07-27T08:59:57.880Z,27.07
2022-07-27T09:00:58.240Z,27.03
2022-07-27T09:01:57.941Z,27.04
2022-07-27T09:02:57.984Z,27.13
2022-07-27T09:03:57.838Z,27.22
2022-07-27T09:04:57.852Z,27.14
2022-07-27T09:05:58.299Z,27.12
2022-07-27T09:06:57.803Z,27.03
2022-07-27T09:07:57.810Z,26.77
2022-07-27T09:08:57.809Z,26.51
2022-07-27T09:09:57.771Z,25.88
2022-07-27T09:10:58.100Z,25.43
2022-07-27T09:11:57.729Z,25.10
2022-07-27T09:12:57.745Z,25.02
2022-07-27T09:13:57.717Z,25.08
2022-07-27T09:14:57.711Z,25.00
2022-07-27T09:16:18.730Z,25.09
2022-07-27T09:17:46.538Z,25.24
2022-07-27T09:17:58.715Z,25.55
2022-07-27T09:18:57.662Z,25.60
2022-07-27T09:19:57.769Z,25.27
2022-07-27T09:20:58.043Z,24.96
2022-07-27T09:21:57.658Z,24.77
2022-07-27T09:22:57.606Z,24.65
2022-07-27T09:23:57.589Z,24.71
2022-07-27T09:24:57.590Z,24.99
2022-07-27T09:26:03.466Z,25.32
2022-07-27T09:26:59.023Z,25.51
2022-07-27T09:27:57.550Z,25.61
2022-07-27T09:28:57.558Z,25.87
2022-07-27T09:29:57.520Z,25.97
2022-07-27T09:30:57.539Z,26.07
2022-07-27T09:31:57.951Z,25.77
2022-07-27T09:32:57.500Z,25.90
2022-07-27T09:33:57.453Z,25.88
2022-07-27T09:34:57.449Z,25.99
2022-07-27T09:35:57.507Z,26.06
2022-07-27T09:36:57.435Z,26.33
2022-07-27T09:37:57.833Z,26.57
2022-07-27T09:39:01.863Z,26.40
2022-07-27T09:39:58.508Z,26.55
2022-07-27T09:40:57.398Z,26.76
2022-07-27T09:41:57.688Z,26.97
2022-07-27T09:43:11.207Z,27.13
2022-07-27T09:44:30.672Z,27.28
2022-07-27T09:44:58.340Z,27.47
2022-07-27T09:45:57.412Z,27.66
2022-07-27T09:46:57.387Z,27.88
2022-07-27T09:47:57.738Z,27.96
2022-07-27T09:48:57.304Z,27.82
2022-07-27T09:49:58.187Z,27.74
2022-07-27T09:51:02.310Z,26.89
2022-07-27T09:52:00.525Z,26.85
2022-07-27T09:52:57.268Z,26.84
2022-07-27T09:53:57.671Z,26.75
2022-07-27T09:54:57.213Z,26.88
2022-07-27T09:55:59.306Z,27.13
2022-07-27T09:56:57.239Z,27.44
2022-07-27T09:57:57.198Z,27.62
2022-07-27T09:58:57.139Z,27.39
2022-07-27T09:59:57.600Z,27.51
2022-07-27T10:00:57.178Z,27.44
2022-07-27T10:01:57.164Z,27.24
2022-07-27T10:02:57.101Z,27.04
2022-07-27T10:03:57.094Z,26.94
2022-07-27T10:04:57.133Z,26.70
2022-07-27T10:05:57.473Z,26.69
2022-07-27T10:07:02.663Z,26.33
2022-07-27T10:07:58.071Z,26.02
2022-07-27T10:08:57.032Z,26.12
2022-07-27T10:09:57.212Z,25.99
2022-07-27T10:10:57.126Z,26.07
2022-07-27T10:11:57.500Z,25.91
2022-07-27T10:12:56.970Z,25.91
2022-07-27T10:13:57.004Z,25.80
2022-07-27T10:14:57.031Z,25.58
2022-07-27T10:15:57.141Z,25.46
2022-07-27T10:16:57.112Z,25.46
2022-07-27T10:17:57.931Z,25.45
2022-07-27T10:18:57.044Z,25.42
2022-07-27T10:19:57.029Z,25.83
2022-07-27T10:20:56.987Z,26.10
2022-07-27T10:21:56.999Z,25.95
2022-07-27T10:22:57.242Z,25.91
2022-07-27T10:23:57.020Z,25.82
2022-07-27T10:24:56.854Z,25.64
2022-07-27T10:25:56.964Z,25.83
2022-07-27T10:26:56.846Z,25.99
2022-07-27T10:27:56.822Z,25.67
2022-07-27T10:28:57.192Z,25.28
2022-07-27T10:29:56.853Z,25.42
2022-07-27T10:30:57.036Z,25.51
2022-07-27T10:31:56.735Z,25.33
2022-07-27T10:32:57.200Z,25.57
2022-07-27T10:33:56.838Z,25.25
2022-07-27T10:34:56.823Z,25.39
2022-07-27T10:35:56.798Z,25.43
2022-07-27T10:36:56.772Z,25.52
2022-07-27T10:37:57.063Z,25.92
2022-07-27T10:38:56.639Z,25.80
2022-07-27T10:39:56.752Z,25.87
2022-07-27T10:40:56.681Z,26.02
2022-07-27T10:41:56.602Z,26.28
2022-07-27T10:42:56.593Z,26.36
2022-07-27T10:43:56.938Z,26.21
2022-07-27T10:44:56.583Z,26.21
2022-07-27T10:46:01.815Z,26.01
2022-07-27T10:46:57.534Z,26.07
2022-07-27T10:47:56.910Z,26.35
2022-07-27T10:48:56.587Z,26.32
2022-07-27T10:49:56.512Z,26.20
2022-07-27T10:50:56.541Z,26.30
2022-07-27T10:51:56.555Z,26.12
2022-07-27T10:52:56.792Z,26.37
2022-07-27T10:54:11.823Z,26.66
2022-07-27T10:55:00.087Z,26.81
2022-07-27T10:55:56.445Z,26.80
2022-07-27T10:56:56.423Z,27.10
2022-07-27T10:57:56.857Z,27.14
2022-07-27T10:58:56.451Z,27.03
2022-07-27T11:00:09.367Z,26.67
2022-07-27T11:00:57.652Z,26.55
2022-07-27T11:01:56.605Z,26.55
2022-07-27T11:02:56.694Z,26.87
2022-07-27T11:03:56.486Z,26.84
2022-07-27T11:04:56.355Z,26.72
2022-07-27T11:06:04.717Z,26.47
2022-07-27T11:07:22.923Z,26.13
2022-07-27T11:08:35.382Z,25.97
2022-07-27T11:09:46.368Z,25.70
2022-07-27T11:10:04.166Z,25.43
2022-07-27T11:10:57.283Z,25.42
2022-07-27T11:11:56.683Z,25.52
2022-07-27T11:12:56.246Z,25.57
2022-07-27T11:13:56.223Z,25.43
2022-07-27T11:14:56.214Z,25.38
2022-07-27T11:16:00.052Z,25.36
2022-07-27T11:17:03.856Z,25.54
2022-07-27T11:18:03.086Z,25.75
2022-07-27T11:18:57.192Z,25.83
2022-07-27T11:19:56.150Z,25.64
2022-07-27T11:20:56.122Z,25.46
2022-07-27T11:21:57.876Z,25.24
2022-07-27T11:23:48.880Z,25.09
2022-07-27T11:23:57.093Z,24.93
2022-07-27T11:24:56.083Z,24.90
2022-07-27T11:25:56.258Z,25.15
2022-07-27T11:26:56.483Z,25.46
2022-07-27T11:27:56.023Z,25.72
2022-07-27T11:28:56.037Z,25.67
2022-07-27T11:29:56.011Z,25.65
2022-07-27T11:30:56.109Z,25.62
2022-07-27T11:31:57.509Z,25.52
2022-07-27T11:32:55.979Z,25.64
2022-07-27T11:33:55.953Z,25.90
2022-07-27T11:34:55.944Z,25.90
2022-07-27T11:35:55.969Z,26.02
2022-07-27T11:36:56.244Z,26.02
2022-07-27T11:37:55.915Z,26.10
2022-07-27T11:38:55.912Z,26.32
2022-07-27T11:40:02.973Z,26.40
2022-07-27T11:41:07.061Z,26.54
2022-07-27T11:42:08.390Z,26.55
2022-07-27T11:42:56.853Z,26.66
2022-07-27T11:43:55.953Z,26.81
2022-07-27T11:44:55.953Z,26.57
2022-07-27T11:45:56.196Z,26.62
2022-07-27T11:46:59.919Z,26.51
2022-07-27T11:47:56.804Z,26.52
2022-07-27T11:49:06.710Z,26.70
2022-07-27T11:49:56.794Z,27.03
2022-07-27T11:50:56.123Z,27.47
2022-07-27T11:51:55.756Z,27.67
2022-07-27T11:53:01.106Z,27.72
2022-07-27T11:53:56.725Z,27.88
2022-07-27T11:54:55.767Z,27.81
2022-07-27T11:55:56.113Z,27.59
2022-07-27T11:56:55.675Z,27.41
2022-07-27T11:57:55.675Z,27.41
2022-07-27T11:58:59.600Z,27.28
2022-07-27T11:59:56.626Z,27.41
2022-07-27T12:00:55.972Z,27.62
2022-07-27T12:01:55.674Z,27.84
2022-07-27T12:02:55.639Z,28.09
2022-07-27T12:03:55.618Z,28.40
2022-07-27T12:05:02.031Z,28.83
2022-07-27T12:05:56.989Z,29.09
2022-07-27T12:06:55.533Z,28.98
2022-07-27T12:07:55.545Z,28.59
2022-07-27T12:08:55.522Z,28.12
2022-07-27T12:09:55.653Z,27.92
2022-07-27T12:10:55.926Z,27.65
2022-07-27T12:11:55.494Z,26.99
2022-07-27T12:12:55.505Z,27.00
2022-07-27T12:13:55.463Z,27.03
2022-07-27T12:14:55.881Z,26.80
2022-07-27T12:15:55.422Z,26.88
2022-07-27T12:16:55.499Z,26.92
2022-07-27T12:17:55.413Z,27.12
2022-07-27T12:18:55.394Z,27.51
2022-07-27T12:19:55.416Z,27.81
2022-07-27T12:20:55.815Z,27.94
2022-07-27T12:21:55.554Z,27.96
2022-07-27T12:22:55.351Z,27.41
2022-07-27T12:23:55.810Z,27.13
2022-07-27T12:24:55.737Z,27.07
2022-07-27T12:25:55.302Z,27.27
2022-07-27T12:26:55.285Z,27.32
2022-07-27T12:27:55.275Z,27.44
2022-07-27T12:28:55.291Z,27.69
2022-07-27T12:29:55.684Z,27.93
2022-07-27T12:30:55.246Z,28.04
2022-07-27T12:31:55.244Z,28.25
2022-07-27T12:32:55.735Z,28.31
2022-07-27T12:34:05.723Z,28.24
2022-07-27T12:34:56.656Z,28.11
2022-07-27T12:35:55.175Z,28.02
2022-07-27T12:36:55.192Z,28.00
2022-07-27T12:37:55.164Z,28.11
2022-07-27T12:38:55.455Z,28.14
2022-07-27T12:39:55.166Z,28.25
2022-07-27T12:41:00.189Z,28.39
2022-07-27T12:41:56.097Z,28.39
2022-07-27T12:42:55.084Z,28.25
2022-07-27T12:43:55.097Z,28.30
2022-07-27T12:44:55.514Z,28.31
2022-07-27T12:45:55.192Z,28.11
2022-07-27T12:46:55.055Z,27.84
2022-07-27T12:47:55.015Z,27.92
2022-07-27T12:48:55.031Z,27.85
2022-07-27T12:49:55.035Z,27.84
2022-07-27T12:50:55.449Z,27.75
2022-07-27T12:51:54.975Z,27.51
2022-07-27T12:52:54.964Z,27.29
2022-07-27T12:53:54.995Z,27.02